sensor_id;sensor_type;location;lat;lon;timestamp;temperature;humidity
52107;DHT22;38105;52.968;5.974;2023-12-20T00:01:40;6.40;99.90
52107;DHT22;38105;52.968;5.974;2023-12-20T00:04:06;6.30;99.90
52107;DHT22;38105;52.968;5.974;2023-12-20T00:06:31;6.10;99.90
52107;DHT22;38105;52.968;5.974;2023-12-20T00:08:57;6.30;99.90
52107;DHT22;38105;52.968;5.974;2023-12-20T00:11:25;6.10;99.90
52107;DHT22;38105;52.968;5.974;2023-12-20T00:13:51;6.10;99.90
52107;DHT22;38105;52.968;5.974;2023-12-20T00:16:17;6.30;99.90
52107;DHT22;38105;52.968;5.974;2023-12-20T00:18:42;6.20;99.90
52107;DHT22;38105;52.968;5.974;2023-12-20T00:21:08;6.20;99.90
52107;DHT22;38105;52.968;5.974;2023-12-20T00:23:33;6.00;99.90
52107;DHT22;38105;52.968;5.974;2023-12-20T00:25:59;6.30;99.90
52107;DHT22;38105;52.968;5.974;2023-12-20T00:28:24;6.00;99.90
52107;DHT22;38105;52.968;5.974;2023-12-20T00:30:50;6.00;99.90
52107;DHT22;38105;52.968;5.974;2023-12-20T00:33:15;6.00;99.90
52107;DHT22;38105;52.968;5.974;2023-12-20T00:35:41;5.90;99.90
52107;DHT22;38105;52.968;5.974;2023-12-20T00:38:06;6.00;99.90
52107;DHT22;38105;52.968;5.974;2023-12-20T00:40:34;5.90;99.90
52107;DHT22;38105;52.968;5.974;2023-12-20T00:42:59;6.00;99.90
52107;DHT22;38105;52.968;5.974;2023-12-20T00:45:25;6.20;99.90
52107;DHT22;38105;52.968;5.974;2023-12-20T00:47:50;6.20;99.90
52107;DHT22;38105;52.968;5.974;2023-12-20T00:50:16;5.90;99.90
52107;DHT22;38105;52.968;5.974;2023-12-20T00:52:41;6.20;99.90
52107;DHT22;38105;52.968;5.974;2023-12-20T00:55:07;6.10;99.90
52107;DHT22;38105;52.968;5.974;2023-12-20T00:57:33;6.00;99.90
52107;DHT22;38105;52.968;5.974;2023-12-20T00:59:58;6.20;99.90
52107;DHT22;38105;52.968;5.974;2023-12-20T01:02:24;6.20;99.90
52107;DHT22;38105;52.968;5.974;2023-12-20T01:04:50;6.10;99.90
52107;DHT22;38105;52.968;5.974;2023-12-20T01:07:15;6.40;99.90
52107;DHT22;38105;52.968;5.974;2023-12-20T01:09:41;6.30;99.90
52107;DHT22;38105;52.968;5.974;2023-12-20T01:12:06;6.20;99.90
52107;DHT22;38105;52.968;5.974;2023-12-20T01:14:32;6.10;99.90
52107;DHT22;38105;52.968;5.974;2023-12-20T01:16:57;6.10;99.90
52107;DHT22;38105;52.968;5.974;2023-12-20T01:19:24;6.20;99.90
52107;DHT22;38105;52.968;5.974;2023-12-20T01:21:50;6.40;99.90
52107;DHT22;38105;52.968;5.974;2023-12-20T01:24:15;6.10;99.90
52107;DHT22;38105;52.968;5.974;2023-12-20T01:26:41;6.10;99.90
52107;DHT22;38105;52.968;5.974;2023-12-20T01:29:06;6.20;99.90
52107;DHT22;38105;52.968;5.974;2023-12-20T01:31:32;6.10;99.90
52107;DHT22;38105;52.968;5.974;2023-12-20T01:33:57;6.10;99.90
52107;DHT22;38105;52.968;5.974;2023-12-20T01:36:23;6.00;99.90
52107;DHT22;38105;52.968;5.974;2023-12-20T01:38:49;6.00;99.90
52107;DHT22;38105;52.968;5.974;2023-12-20T01:41:14;6.20;99.90
52107;DHT22;38105;52.968;5.974;2023-12-20T01:43:40;6.10;99.90
52107;DHT22;38105;52.968;5.974;2023-12-20T01:46:06;6.30;99.90
52107;DHT22;38105;52.968;5.974;2023-12-20T01:48:31;6.40;99.90
52107;DHT22;38105;52.968;5.974;2023-12-20T01:51:00;6.20;99.90
52107;DHT22;38105;52.968;5.974;2023-12-20T01:53:26;6.30;99.90
52107;DHT22;38105;52.968;5.974;2023-12-20T01:55:52;6.30;99.90
52107;DHT22;38105;52.968;5.974;2023-12-20T01:58:19;6.30;99.90
52107;DHT22;38105;52.968;5.974;2023-12-20T02:00:45;6.30;99.90
52107;DHT22;38105;52.968;5.974;2023-12-20T02:03:11;6.10;99.90
52107;DHT22;38105;52.968;5.974;2023-12-20T02:05:36;6.40;99.90
52107;DHT22;38105;52.968;5.974;2023-12-20T02:08:03;6.30;99.90
52107;DHT22;38105;52.968;5.974;2023-12-20T02:10:28;6.50;99.90
52107;DHT22;38105;52.968;5.974;2023-12-20T02:12:54;6.50;99.90
52107;DHT22;38105;52.968;5.974;2023-12-20T02:15:20;6.50;99.90
52107;DHT22;38105;52.968;5.974;2023-12-20T02:17:46;6.60;99.90
52107;DHT22;38105;52.968;5.974;2023-12-20T02:20:12;6.60;99.90
52107;DHT22;38105;52.968;5.974;2023-12-20T02:22:37;6.70;99.90
52107;DHT22;38105;52.968;5.974;2023-12-20T02:25:03;6.70;99.90
52107;DHT22;38105;52.968;5.974;2023-12-20T02:27:28;6.70;99.90
52107;DHT22;38105;52.968;5.974;2023-12-20T02:29:54;6.70;99.90
52107;DHT22;38105;52.968;5.974;2023-12-20T02:32:20;6.80;99.90
52107;DHT22;38105;52.968;5.974;2023-12-20T02:34:49;6.90;99.90
52107;DHT22;38105;52.968;5.974;2023-12-20T02:37:15;6.80;99.90
52107;DHT22;38105;52.968;5.974;2023-12-20T02:39:41;6.90;99.90
52107;DHT22;38105;52.968;5.974;2023-12-20T02:42:07;6.90;99.90
52107;DHT22;38105;52.968;5.974;2023-12-20T02:44:32;6.80;99.90
52107;DHT22;38105;52.968;5.974;2023-12-20T02:46:58;6.80;99.90
52107;DHT22;38105;52.968;5.974;2023-12-20T02:49:23;6.80;99.90
52107;DHT22;38105;52.968;5.974;2023-12-20T02:51:49;6.80;99.90
52107;DHT22;38105;52.968;5.974;2023-12-20T02:54:14;6.80;99.90
52107;DHT22;38105;52.968;5.974;2023-12-20T02:56:40;6.70;99.90
52107;DHT22;38105;52.968;5.974;2023-12-20T02:59:05;6.70;99.90
52107;DHT22;38105;52.968;5.974;2023-12-20T03:01:31;6.80;99.90
52107;DHT22;38105;52.968;5.974;2023-12-20T03:03:57;6.70;99.90
52107;DHT22;38105;52.968;5.974;2023-12-20T03:06:22;6.70;99.90
52107;DHT22;38105;52.968;5.974;2023-12-20T03:08:48;6.70;99.90
52107;DHT22;38105;52.968;5.974;2023-12-20T03:11:13;6.70;99.90
52107;DHT22;38105;52.968;5.974;2023-12-20T03:13:39;6.60;99.90
52107;DHT22;38105;52.968;5.974;2023-12-20T03:16:08;6.60;99.90
52107;DHT22;38105;52.968;5.974;2023-12-20T03:18:34;6.60;99.90
52107;DHT22;38105;52.968;5.974;2023-12-20T03:20:59;6.60;99.90
52107;DHT22;38105;52.968;5.974;2023-12-20T03:23:25;6.60;99.90
52107;DHT22;38105;52.968;5.974;2023-12-20T03:29:04;6.80;99.90
52107;DHT22;38105;52.968;5.974;2023-12-20T03:31:29;6.70;99.90
52107;DHT22;38105;52.968;5.974;2023-12-20T03:33:55;6.80;99.90
52107;DHT22;38105;52.968;5.974;2023-12-20T03:36:20;6.70;99.90
52107;DHT22;38105;52.968;5.974;2023-12-20T03:38:46;6.70;99.90
52107;DHT22;38105;52.968;5.974;2023-12-20T03:41:12;6.70;99.90
52107;DHT22;38105;52.968;5.974;2023-12-20T03:43:38;6.70;99.90
52107;DHT22;38105;52.968;5.974;2023-12-20T03:46:04;6.70;99.90
52107;DHT22;38105;52.968;5.974;2023-12-20T03:48:30;6.80;99.90
52107;DHT22;38105;52.968;5.974;2023-12-20T03:50:56;6.80;99.90
52107;DHT22;38105;52.968;5.974;2023-12-20T03:53:22;6.90;99.90
52107;DHT22;38105;52.968;5.974;2023-12-20T03:55:47;6.80;99.90
52107;DHT22;38105;52.968;5.974;2023-12-20T03:58:13;6.80;99.90
52107;DHT22;38105;52.968;5.974;2023-12-20T04:00:39;6.80;99.90
52107;DHT22;38105;52.968;5.974;2023-12-20T04:03:04;6.90;99.90
52107;DHT22;38105;52.968;5.974;2023-12-20T04:05:30;6.90;99.90
52107;DHT22;38105;52.968;5.974;2023-12-20T04:07:55;6.90;99.90
52107;DHT22;38105;52.968;5.974;2023-12-20T04:10:21;6.90;99.90
52107;DHT22;38105;52.968;5.974;2023-12-20T04:12:46;7.00;99.90
52107;DHT22;38105;52.968;5.974;2023-12-20T04:15:13;6.90;99.90
52107;DHT22;38105;52.968;5.974;2023-12-20T04:17:38;6.80;99.90
52107;DHT22;38105;52.968;5.974;2023-12-20T04:20:04;7.00;99.90
52107;DHT22;38105;52.968;5.974;2023-12-20T04:22:30;6.90;99.90
52107;DHT22;38105;52.968;5.974;2023-12-20T04:24:56;6.90;99.90
52107;DHT22;38105;52.968;5.974;2023-12-20T04:27:21;6.90;99.90
52107;DHT22;38105;52.968;5.974;2023-12-20T04:29:47;7.00;99.90
52107;DHT22;38105;52.968;5.974;2023-12-20T04:32:12;7.00;99.90
52107;DHT22;38105;52.968;5.974;2023-12-20T04:34:38;7.00;99.90
52107;DHT22;38105;52.968;5.974;2023-12-20T04:37:03;7.10;99.90
52107;DHT22;38105;52.968;5.974;2023-12-20T04:39:29;7.10;99.90
52107;DHT22;38105;52.968;5.974;2023-12-20T04:41:55;7.10;99.90
52107;DHT22;38105;52.968;5.974;2023-12-20T04:44:20;7.10;99.90
52107;DHT22;38105;52.968;5.974;2023-12-20T04:46:46;7.10;99.90
52107;DHT22;38105;52.968;5.974;2023-12-20T04:49:11;7.20;99.90
52107;DHT22;38105;52.968;5.974;2023-12-20T04:51:37;7.10;99.90
52107;DHT22;38105;52.968;5.974;2023-12-20T04:54:03;7.20;99.90
52107;DHT22;38105;52.968;5.974;2023-12-20T04:56:29;7.20;99.90
52107;DHT22;38105;52.968;5.974;2023-12-20T04:58:54;7.20;99.90
52107;DHT22;38105;52.968;5.974;2023-12-20T05:01:20;7.20;99.90
52107;DHT22;38105;52.968;5.974;2023-12-20T05:03:46;7.20;99.90
52107;DHT22;38105;52.968;5.974;2023-12-20T05:06:12;7.20;99.90
52107;DHT22;38105;52.968;5.974;2023-12-20T05:08:37;7.20;99.90
52107;DHT22;38105;52.968;5.974;2023-12-20T05:11:03;7.20;99.90
52107;DHT22;38105;52.968;5.974;2023-12-20T05:13:29;7.20;99.90
52107;DHT22;38105;52.968;5.974;2023-12-20T05:15:54;7.20;99.90
52107;DHT22;38105;52.968;5.974;2023-12-20T05:18:20;7.20;99.90
52107;DHT22;38105;52.968;5.974;2023-12-20T05:20:46;7.20;99.90
52107;DHT22;38105;52.968;5.974;2023-12-20T05:23:11;7.30;99.90
52107;DHT22;38105;52.968;5.974;2023-12-20T05:25:38;7.30;99.90
52107;DHT22;38105;52.968;5.974;2023-12-20T05:28:04;7.30;99.90
52107;DHT22;38105;52.968;5.974;2023-12-20T05:30:30;7.30;99.90
52107;DHT22;38105;52.968;5.974;2023-12-20T05:32:55;7.30;99.90
52107;DHT22;38105;52.968;5.974;2023-12-20T05:35:21;7.30;99.90
52107;DHT22;38105;52.968;5.974;2023-12-20T05:37:49;7.30;99.90
52107;DHT22;38105;52.968;5.974;2023-12-20T05:40:14;7.30;99.90
52107;DHT22;38105;52.968;5.974;2023-12-20T05:42:40;7.40;99.90
52107;DHT22;38105;52.968;5.974;2023-12-20T05:45:06;7.40;99.90
52107;DHT22;38105;52.968;5.974;2023-12-20T05:47:31;7.40;99.90
52107;DHT22;38105;52.968;5.974;2023-12-20T05:49:57;7.30;99.90
52107;DHT22;38105;52.968;5.974;2023-12-20T05:52:25;7.40;99.90
52107;DHT22;38105;52.968;5.974;2023-12-20T05:54:54;7.30;99.90
52107;DHT22;38105;52.968;5.974;2023-12-20T05:57:19;7.40;99.90
52107;DHT22;38105;52.968;5.974;2023-12-20T05:59:45;7.40;99.90
52107;DHT22;38105;52.968;5.974;2023-12-20T06:02:10;7.40;99.90
52107;DHT22;38105;52.968;5.974;2023-12-20T06:04:35;7.30;99.90
52107;DHT22;38105;52.968;5.974;2023-12-20T06:07:01;7.40;99.90
52107;DHT22;38105;52.968;5.974;2023-12-20T06:09:27;7.40;99.90
52107;DHT22;38105;52.968;5.974;2023-12-20T06:11:53;7.40;99.90
52107;DHT22;38105;52.968;5.974;2023-12-20T06:14:18;7.50;99.90
52107;DHT22;38105;52.968;5.974;2023-12-20T06:16:45;7.40;99.90
52107;DHT22;38105;52.968;5.974;2023-12-20T06:19:11;7.50;99.90
52107;DHT22;38105;52.968;5.974;2023-12-20T06:21:36;7.40;99.90
52107;DHT22;38105;52.968;5.974;2023-12-20T06:24:02;7.40;99.90
52107;DHT22;38105;52.968;5.974;2023-12-20T06:26:28;7.50;99.90
52107;DHT22;38105;52.968;5.974;2023-12-20T06:28:53;7.50;99.90
52107;DHT22;38105;52.968;5.974;2023-12-20T06:31:19;7.50;99.90
52107;DHT22;38105;52.968;5.974;2023-12-20T06:33:44;7.50;99.90
52107;DHT22;38105;52.968;5.974;2023-12-20T06:36:13;7.50;99.90
52107;DHT22;38105;52.968;5.974;2023-12-20T06:38:39;7.50;99.90
52107;DHT22;38105;52.968;5.974;2023-12-20T06:41:04;7.50;99.90
52107;DHT22;38105;52.968;5.974;2023-12-20T06:43:31;7.60;99.90
52107;DHT22;38105;52.968;5.974;2023-12-20T06:45:57;7.60;99.90
52107;DHT22;38105;52.968;5.974;2023-12-20T06:48:23;7.60;99.90
52107;DHT22;38105;52.968;5.974;2023-12-20T06:50:49;7.60;99.90
52107;DHT22;38105;52.968;5.974;2023-12-20T06:53:14;7.60;99.90
52107;DHT22;38105;52.968;5.974;2023-12-20T06:55:40;7.60;99.90
52107;DHT22;38105;52.968;5.974;2023-12-20T06:58:05;7.60;99.90
52107;DHT22;38105;52.968;5.974;2023-12-20T07:00:32;7.60;99.90
52107;DHT22;38105;52.968;5.974;2023-12-20T07:02:58;7.60;99.90
52107;DHT22;38105;52.968;5.974;2023-12-20T07:05:23;7.60;99.90
52107;DHT22;38105;52.968;5.974;2023-12-20T07:07:49;7.60;99.90
52107;DHT22;38105;52.968;5.974;2023-12-20T07:10:14;7.60;99.90
52107;DHT22;38105;52.968;5.974;2023-12-20T07:12:40;7.50;99.90
52107;DHT22;38105;52.968;5.974;2023-12-20T07:15:05;7.60;99.90
52107;DHT22;38105;52.968;5.974;2023-12-20T07:17:32;7.60;99.90
52107;DHT22;38105;52.968;5.974;2023-12-20T07:19:58;7.60;99.90
52107;DHT22;38105;52.968;5.974;2023-12-20T07:22:24;7.60;99.90
52107;DHT22;38105;52.968;5.974;2023-12-20T07:24:49;7.60;99.90
52107;DHT22;38105;52.968;5.974;2023-12-20T07:27:17;7.70;99.90
52107;DHT22;38105;52.968;5.974;2023-12-20T07:29:43;7.60;99.90
52107;DHT22;38105;52.968;5.974;2023-12-20T07:32:08;7.70;99.90
52107;DHT22;38105;52.968;5.974;2023-12-20T07:34:34;7.60;99.90
52107;DHT22;38105;52.968;5.974;2023-12-20T07:36:59;7.70;99.90
52107;DHT22;38105;52.968;5.974;2023-12-20T07:39:25;7.60;99.90
52107;DHT22;38105;52.968;5.974;2023-12-20T07:41:50;7.70;99.90
52107;DHT22;38105;52.968;5.974;2023-12-20T07:44:16;7.70;99.90
52107;DHT22;38105;52.968;5.974;2023-12-20T07:46:41;7.70;99.90
52107;DHT22;38105;52.968;5.974;2023-12-20T07:49:07;7.70;99.90
52107;DHT22;38105;52.968;5.974;2023-12-20T07:51:33;7.60;99.90
52107;DHT22;38105;52.968;5.974;2023-12-20T07:53:59;7.70;99.90
52107;DHT22;38105;52.968;5.974;2023-12-20T07:56:24;7.70;99.90
52107;DHT22;38105;52.968;5.974;2023-12-20T07:58:50;7.70;99.90
52107;DHT22;38105;52.968;5.974;2023-12-20T08:01:16;7.70;99.90
52107;DHT22;38105;52.968;5.974;2023-12-20T08:03:41;7.70;99.90
52107;DHT22;38105;52.968;5.974;2023-12-20T08:06:07;7.70;99.90
52107;DHT22;38105;52.968;5.974;2023-12-20T08:08:32;7.70;99.90
52107;DHT22;38105;52.968;5.974;2023-12-20T08:10:58;7.70;99.90
52107;DHT22;38105;52.968;5.974;2023-12-20T08:13:25;7.70;99.90
52107;DHT22;38105;52.968;5.974;2023-12-20T08:15:51;7.70;99.90
52107;DHT22;38105;52.968;5.974;2023-12-20T08:18:17;7.70;99.90
52107;DHT22;38105;52.968;5.974;2023-12-20T08:20:42;7.70;99.90
52107;DHT22;38105;52.968;5.974;2023-12-20T08:23:08;7.70;99.90
52107;DHT22;38105;52.968;5.974;2023-12-20T08:25:33;7.80;99.90
52107;DHT22;38105;52.968;5.974;2023-12-20T08:27:59;7.80;99.90
52107;DHT22;38105;52.968;5.974;2023-12-20T08:30:24;7.80;99.90
52107;DHT22;38105;52.968;5.974;2023-12-20T08:32:50;7.80;99.90
52107;DHT22;38105;52.968;5.974;2023-12-20T08:35:16;7.80;99.90
52107;DHT22;38105;52.968;5.974;2023-12-20T08:37:43;8.00;99.90
52107;DHT22;38105;52.968;5.974;2023-12-20T08:40:08;8.10;99.90
52107;DHT22;38105;52.968;5.974;2023-12-20T08:42:34;8.40;99.90
52107;DHT22;38105;52.968;5.974;2023-12-20T08:45:00;8.70;99.90
52107;DHT22;38105;52.968;5.974;2023-12-20T08:47:25;8.80;99.90
52107;DHT22;38105;52.968;5.974;2023-12-20T08:49:51;8.60;99.90
52107;DHT22;38105;52.968;5.974;2023-12-20T08:52:24;8.40;99.90
52107;DHT22;38105;52.968;5.974;2023-12-20T08:54:50;8.20;99.90
52107;DHT22;38105;52.968;5.974;2023-12-20T08:57:19;8.20;99.90
52107;DHT22;38105;52.968;5.974;2023-12-20T08:59:44;8.10;99.90
52107;DHT22;38105;52.968;5.974;2023-12-20T09:02:10;8.10;99.90
52107;DHT22;38105;52.968;5.974;2023-12-20T09:04:35;8.10;99.90
52107;DHT22;38105;52.968;5.974;2023-12-20T09:07:01;8.40;99.90
52107;DHT22;38105;52.968;5.974;2023-12-20T09:09:26;8.50;99.90
52107;DHT22;38105;52.968;5.974;2023-12-20T09:11:52;8.60;99.90
52107;DHT22;38105;52.968;5.974;2023-12-20T09:14:18;8.80;99.90
52107;DHT22;38105;52.968;5.974;2023-12-20T09:16:43;8.90;99.90
52107;DHT22;38105;52.968;5.974;2023-12-20T09:19:09;8.90;99.90
52107;DHT22;38105;52.968;5.974;2023-12-20T09:21:34;8.70;99.90
52107;DHT22;38105;52.968;5.974;2023-12-20T09:24:00;8.50;99.90
52107;DHT22;38105;52.968;5.974;2023-12-20T09:26:25;8.50;99.90
52107;DHT22;38105;52.968;5.974;2023-12-20T09:28:51;8.30;99.90
52107;DHT22;38105;52.968;5.974;2023-12-20T09:31:16;8.30;99.90
52107;DHT22;38105;52.968;5.974;2023-12-20T09:33:42;8.20;99.90
52107;DHT22;38105;52.968;5.974;2023-12-20T09:36:07;7.90;99.90
52107;DHT22;38105;52.968;5.974;2023-12-20T09:38:33;7.80;99.90
52107;DHT22;38105;52.968;5.974;2023-12-20T09:40:58;7.60;99.90
52107;DHT22;38105;52.968;5.974;2023-12-20T09:43:24;7.40;99.90
52107;DHT22;38105;52.968;5.974;2023-12-20T09:45:52;7.30;99.90
52107;DHT22;38105;52.968;5.974;2023-12-20T09:48:18;7.20;99.90
52107;DHT22;38105;52.968;5.974;2023-12-20T09:50:45;7.10;99.90
52107;DHT22;38105;52.968;5.974;2023-12-20T09:53:11;7.00;99.90
52107;DHT22;38105;52.968;5.974;2023-12-20T09:55:39;7.00;99.90
52107;DHT22;38105;52.968;5.974;2023-12-20T09:58:06;7.00;99.90
52107;DHT22;38105;52.968;5.974;2023-12-20T10:00:34;7.00;99.90
52107;DHT22;38105;52.968;5.974;2023-12-20T10:03:00;6.90;99.90
52107;DHT22;38105;52.968;5.974;2023-12-20T10:05:26;6.90;99.90
52107;DHT22;38105;52.968;5.974;2023-12-20T10:07:52;6.80;99.90
52107;DHT22;38105;52.968;5.974;2023-12-20T10:10:18;6.80;99.90
52107;DHT22;38105;52.968;5.974;2023-12-20T10:15:28;6.80;99.90
52107;DHT22;38105;52.968;5.974;2023-12-20T10:17:53;6.80;99.90
52107;DHT22;38105;52.968;5.974;2023-12-20T10:20:20;6.80;99.90
52107;DHT22;38105;52.968;5.974;2023-12-20T10:22:45;7.00;99.90
52107;DHT22;38105;52.968;5.974;2023-12-20T10:25:12;7.00;99.90
52107;DHT22;38105;52.968;5.974;2023-12-20T10:27:37;7.10;99.90
52107;DHT22;38105;52.968;5.974;2023-12-20T10:30:03;7.10;99.90
52107;DHT22;38105;52.968;5.974;2023-12-20T10:32:31;7.10;99.90
52107;DHT22;38105;52.968;5.974;2023-12-20T10:34:57;7.20;99.90
52107;DHT22;38105;52.968;5.974;2023-12-20T10:37:22;7.20;99.90
52107;DHT22;38105;52.968;5.974;2023-12-20T10:39:49;7.10;99.90
52107;DHT22;38105;52.968;5.974;2023-12-20T10:42:15;7.10;99.90
52107;DHT22;38105;52.968;5.974;2023-12-20T10:44:41;7.10;99.90
52107;DHT22;38105;52.968;5.974;2023-12-20T10:47:07;7.00;99.90
52107;DHT22;38105;52.968;5.974;2023-12-20T10:49:34;7.10;99.90
52107;DHT22;38105;52.968;5.974;2023-12-20T10:52:01;7.10;99.90
52107;DHT22;38105;52.968;5.974;2023-12-20T10:54:27;7.10;99.90
52107;DHT22;38105;52.968;5.974;2023-12-20T10:56:53;7.10;99.90
52107;DHT22;38105;52.968;5.974;2023-12-20T10:59:19;7.20;99.90
52107;DHT22;38105;52.968;5.974;2023-12-20T11:01:45;7.20;99.90
52107;DHT22;38105;52.968;5.974;2023-12-20T11:04:14;7.20;99.90
52107;DHT22;38105;52.968;5.974;2023-12-20T11:14:20;7.30;99.90
52107;DHT22;38105;52.968;5.974;2023-12-20T11:16:47;7.20;99.90
52107;DHT22;38105;52.968;5.974;2023-12-20T11:19:13;7.20;99.90
52107;DHT22;38105;52.968;5.974;2023-12-20T11:21:39;7.20;99.90
52107;DHT22;38105;52.968;5.974;2023-12-20T11:24:05;7.30;99.90
52107;DHT22;38105;52.968;5.974;2023-12-20T11:26:30;7.30;99.90
52107;DHT22;38105;52.968;5.974;2023-12-20T11:31:40;7.30;99.90
52107;DHT22;38105;52.968;5.974;2023-12-20T11:34:13;7.30;99.90
52107;DHT22;38105;52.968;5.974;2023-12-20T11:36:39;7.30;99.90
52107;DHT22;38105;52.968;5.974;2023-12-20T11:39:05;7.40;99.90
52107;DHT22;38105;52.968;5.974;2023-12-20T11:41:34;7.40;99.90
52107;DHT22;38105;52.968;5.974;2023-12-20T11:43:59;7.50;99.90
52107;DHT22;38105;52.968;5.974;2023-12-20T11:46:26;7.40;99.90
52107;DHT22;38105;52.968;5.974;2023-12-20T11:48:52;7.50;99.90
52107;DHT22;38105;52.968;5.974;2023-12-20T11:51:17;7.40;99.90
52107;DHT22;38105;52.968;5.974;2023-12-20T11:53:43;7.40;99.90
52107;DHT22;38105;52.968;5.974;2023-12-20T11:56:08;7.40;99.90
52107;DHT22;38105;52.968;5.974;2023-12-20T11:58:35;7.40;99.90
52107;DHT22;38105;52.968;5.974;2023-12-20T12:01:01;7.40;99.90
52107;DHT22;38105;52.968;5.974;2023-12-20T12:03:27;7.50;99.90
52107;DHT22;38105;52.968;5.974;2023-12-20T12:05:53;7.40;99.90
52107;DHT22;38105;52.968;5.974;2023-12-20T12:08:18;7.30;99.90
52107;DHT22;38105;52.968;5.974;2023-12-20T12:10:44;7.30;99.90
52107;DHT22;38105;52.968;5.974;2023-12-20T12:13:10;7.30;99.90
52107;DHT22;38105;52.968;5.974;2023-12-20T12:15:36;7.30;99.90
52107;DHT22;38105;52.968;5.974;2023-12-20T12:18:02;7.30;99.90
52107;DHT22;38105;52.968;5.974;2023-12-20T12:20:27;7.20;99.90
52107;DHT22;38105;52.968;5.974;2023-12-20T12:22:57;7.10;99.90
52107;DHT22;38105;52.968;5.974;2023-12-20T12:25:22;7.20;99.90
52107;DHT22;38105;52.968;5.974;2023-12-20T12:27:48;7.10;99.90
52107;DHT22;38105;52.968;5.974;2023-12-20T12:30:15;7.10;99.90
52107;DHT22;38105;52.968;5.974;2023-12-20T12:32:44;7.00;99.90
52107;DHT22;38105;52.968;5.974;2023-12-20T12:35:09;7.00;99.90
52107;DHT22;38105;52.968;5.974;2023-12-20T12:37:35;7.00;99.90
52107;DHT22;38105;52.968;5.974;2023-12-20T12:40:03;6.90;99.90
52107;DHT22;38105;52.968;5.974;2023-12-20T12:42:30;6.90;99.90
52107;DHT22;38105;52.968;5.974;2023-12-20T12:44:55;6.90;99.90
52107;DHT22;38105;52.968;5.974;2023-12-20T12:47:24;6.90;99.90
52107;DHT22;38105;52.968;5.974;2023-12-20T12:49:51;6.90;99.90
52107;DHT22;38105;52.968;5.974;2023-12-20T12:52:17;6.90;99.90
52107;DHT22;38105;52.968;5.974;2023-12-20T12:54:42;6.90;99.90
52107;DHT22;38105;52.968;5.974;2023-12-20T12:57:10;6.80;99.90
52107;DHT22;38105;52.968;5.974;2023-12-20T12:59:36;6.90;99.90
52107;DHT22;38105;52.968;5.974;2023-12-20T13:02:01;6.80;99.90
52107;DHT22;38105;52.968;5.974;2023-12-20T13:04:27;6.90;99.90
52107;DHT22;38105;52.968;5.974;2023-12-20T13:06:52;6.90;99.90
52107;DHT22;38105;52.968;5.974;2023-12-20T13:09:18;6.90;99.90
52107;DHT22;38105;52.968;5.974;2023-12-20T13:11:44;6.70;99.90
52107;DHT22;38105;52.968;5.974;2023-12-20T13:14:10;6.70;99.90
52107;DHT22;38105;52.968;5.974;2023-12-20T13:16:40;6.70;99.90
52107;DHT22;38105;52.968;5.974;2023-12-20T13:19:06;6.70;99.90
52107;DHT22;38105;52.968;5.974;2023-12-20T13:21:32;6.80;99.90
52107;DHT22;38105;52.968;5.974;2023-12-20T13:23:57;6.80;99.90
52107;DHT22;38105;52.968;5.974;2023-12-20T13:26:23;6.70;99.90
52107;DHT22;38105;52.968;5.974;2023-12-20T13:28:49;6.70;99.90
52107;DHT22;38105;52.968;5.974;2023-12-20T13:31:14;6.80;99.90
52107;DHT22;38105;52.968;5.974;2023-12-20T13:33:40;6.70;99.90
52107;DHT22;38105;52.968;5.974;2023-12-20T13:36:06;6.70;99.90
52107;DHT22;38105;52.968;5.974;2023-12-20T13:38:31;6.70;99.90
52107;DHT22;38105;52.968;5.974;2023-12-20T13:40:57;6.90;99.90
52107;DHT22;38105;52.968;5.974;2023-12-20T13:43:24;6.80;99.90
52107;DHT22;38105;52.968;5.974;2023-12-20T13:45:50;6.80;99.90
52107;DHT22;38105;52.968;5.974;2023-12-20T13:48:15;6.80;99.90
52107;DHT22;38105;52.968;5.974;2023-12-20T13:50:41;6.90;99.90
52107;DHT22;38105;52.968;5.974;2023-12-20T13:53:06;6.80;99.90
52107;DHT22;38105;52.968;5.974;2023-12-20T13:55:32;6.90;99.90
52107;DHT22;38105;52.968;5.974;2023-12-20T13:57:57;6.80;99.90
52107;DHT22;38105;52.968;5.974;2023-12-20T14:00:23;6.90;99.90
52107;DHT22;38105;52.968;5.974;2023-12-20T14:02:49;6.90;99.90
52107;DHT22;38105;52.968;5.974;2023-12-20T14:05:15;7.10;99.90
52107;DHT22;38105;52.968;5.974;2023-12-20T14:07:45;7.00;99.90
52107;DHT22;38105;52.968;5.974;2023-12-20T14:10:11;7.10;99.90
52107;DHT22;38105;52.968;5.974;2023-12-20T14:12:38;7.10;99.90
52107;DHT22;38105;52.968;5.974;2023-12-20T14:15:04;7.20;99.90
52107;DHT22;38105;52.968;5.974;2023-12-20T14:17:34;7.00;99.90
52107;DHT22;38105;52.968;5.974;2023-12-20T14:20:00;7.00;99.90
52107;DHT22;38105;52.968;5.974;2023-12-20T14:22:25;7.00;99.90
52107;DHT22;38105;52.968;5.974;2023-12-20T14:24:51;7.20;99.90
52107;DHT22;38105;52.968;5.974;2023-12-20T14:27:16;7.10;99.90
52107;DHT22;38105;52.968;5.974;2023-12-20T14:29:42;7.10;99.90
52107;DHT22;38105;52.968;5.974;2023-12-20T14:32:07;7.10;99.90
52107;DHT22;38105;52.968;5.974;2023-12-20T14:34:33;7.10;99.90
52107;DHT22;38105;52.968;5.974;2023-12-20T14:36:58;6.90;99.90
52107;DHT22;38105;52.968;5.974;2023-12-20T14:39:24;7.00;99.90
52107;DHT22;38105;52.968;5.974;2023-12-20T14:41:49;7.00;99.90
52107;DHT22;38105;52.968;5.974;2023-12-20T14:44:15;6.90;99.90
52107;DHT22;38105;52.968;5.974;2023-12-20T14:46:42;6.90;99.90
52107;DHT22;38105;52.968;5.974;2023-12-20T14:49:07;7.00;99.90
52107;DHT22;38105;52.968;5.974;2023-12-20T14:51:33;7.00;99.90
52107;DHT22;38105;52.968;5.974;2023-12-20T14:53:58;7.10;99.90
52107;DHT22;38105;52.968;5.974;2023-12-20T14:56:24;7.20;99.90
52107;DHT22;38105;52.968;5.974;2023-12-20T14:58:51;7.30;99.90
52107;DHT22;38105;52.968;5.974;2023-12-20T15:01:16;7.20;99.90
52107;DHT22;38105;52.968;5.974;2023-12-20T15:03:46;7.30;99.90
52107;DHT22;38105;52.968;5.974;2023-12-20T15:06:12;7.30;99.90
52107;DHT22;38105;52.968;5.974;2023-12-20T15:08:37;7.30;99.90
52107;DHT22;38105;52.968;5.974;2023-12-20T15:11:03;7.40;99.90
52107;DHT22;38105;52.968;5.974;2023-12-20T15:13:29;7.40;99.90
52107;DHT22;38105;52.968;5.974;2023-12-20T15:15:56;7.40;99.90
52107;DHT22;38105;52.968;5.974;2023-12-20T15:18:21;7.40;99.90
52107;DHT22;38105;52.968;5.974;2023-12-20T15:20:47;7.60;99.90
52107;DHT22;38105;52.968;5.974;2023-12-20T15:23:13;7.60;99.90
52107;DHT22;38105;52.968;5.974;2023-12-20T15:25:38;7.60;99.90
52107;DHT22;38105;52.968;5.974;2023-12-20T15:28:04;7.60;99.90
52107;DHT22;38105;52.968;5.974;2023-12-20T15:30:30;7.60;99.90
52107;DHT22;38105;52.968;5.974;2023-12-20T15:32:56;7.50;99.90
52107;DHT22;38105;52.968;5.974;2023-12-20T15:35:22;7.50;99.90
52107;DHT22;38105;52.968;5.974;2023-12-20T15:37:47;7.60;99.90
52107;DHT22;38105;52.968;5.974;2023-12-20T15:40:13;7.50;99.90
52107;DHT22;38105;52.968;5.974;2023-12-20T15:42:39;7.50;99.90
52107;DHT22;38105;52.968;5.974;2023-12-20T15:45:05;7.60;99.90
52107;DHT22;38105;52.968;5.974;2023-12-20T15:47:31;7.60;99.90
52107;DHT22;38105;52.968;5.974;2023-12-20T15:49:56;7.50;99.90
52107;DHT22;38105;52.968;5.974;2023-12-20T15:52:23;7.60;99.90